Densmore, Kansas
Current Conditions -  °F | °C
As of 11:53 AM on Monday 22 Dec 2014 (Local Time) from KHLC Reporting Station
Few Clouds Few Clouds  
Wind Chill: 50°   Ceiling: Unl
Heat Index: 50°   Visibility: 10mi
Dew Point: 29°   Wind: 22mph
Humidity: 44%   Direction: 310°NW
Pressure: 29.6"   Gusts: 33mph
Location:  39.68°N, 99.7571°W
Report Text: KHLC 221753Z AUTO 31019G29KT 10SM FEW110 10/M02 A2960 RMK AO2 PK WND 31029/1748 SLP025 T01001017 10100 20044 58010
Loading
Personal Weather Stations






























Interactive Weather Map New forecast layout! Learn more

10-Day Weather Forecast

Advertisements
Track Severe Weather on mobile